createdAt,value
2023-07-21T00:00:13.906Z,18.10
2023-07-21T00:02:42.475Z,18.00
2023-07-21T00:05:10.868Z,18.00
2023-07-21T00:07:37.708Z,17.90
2023-07-21T00:10:08.548Z,17.90
2023-07-21T00:12:41.325Z,17.80
2023-07-21T00:15:09.568Z,17.80
2023-07-21T00:17:36.293Z,17.70
2023-07-21T00:20:12.092Z,17.70
2023-07-21T00:22:39.831Z,17.60
2023-07-21T00:25:07.360Z,17.60
2023-07-21T00:27:36.301Z,17.50
2023-07-21T00:30:03.151Z,17.50
2023-07-21T00:32:32.505Z,17.50
2023-07-21T00:34:59.234Z,17.50
2023-07-21T00:37:25.875Z,17.40
2023-07-21T00:39:52.529Z,17.40
2023-07-21T00:42:19.149Z,17.30
2023-07-21T00:44:45.855Z,17.20
2023-07-21T00:47:12.869Z,17.10
2023-07-21T00:49:40.734Z,17.10
2023-07-21T00:52:10.224Z,17.00
2023-07-21T00:54:37.540Z,17.00
2023-07-21T00:57:04.496Z,17.00
2023-07-21T00:59:31.619Z,16.90
2023-07-21T01:01:59.671Z,16.80
2023-07-21T01:04:26.394Z,16.80
2023-07-21T01:06:54.273Z,16.80
2023-07-21T01:09:23.315Z,16.80
2023-07-21T01:11:50.535Z,16.80
2023-07-21T01:14:17.144Z,16.80
2023-07-21T01:16:46.199Z,16.70
2023-07-21T01:19:16.612Z,16.70
2023-07-21T01:21:49.240Z,16.60
2023-07-21T01:24:47.524Z,16.40
2023-07-21T01:27:16.771Z,16.20
2023-07-21T01:29:45.949Z,16.00
2023-07-21T01:32:15.571Z,16.00
2023-07-21T01:34:43.373Z,15.80
2023-07-21T01:37:12.749Z,15.70
2023-07-21T01:39:40.221Z,15.70
2023-07-21T01:42:07.858Z,15.70
2023-07-21T01:44:35.264Z,15.70
2023-07-21T01:47:02.005Z,15.70
2023-07-21T01:49:28.719Z,15.70
2023-07-21T01:51:59.806Z,15.70
2023-07-21T01:54:42.454Z,15.70
2023-07-21T01:57:12.628Z,15.80
2023-07-21T01:59:44.293Z,15.80
2023-07-21T02:02:11.974Z,15.80
2023-07-21T02:04:39.857Z,15.90
2023-07-21T02:07:06.582Z,15.90
2023-07-21T02:09:33.209Z,15.90
2023-07-21T02:11:59.925Z,15.90
2023-07-21T02:14:26.521Z,15.80
2023-07-21T02:16:53.382Z,15.90
2023-07-21T02:19:20.150Z,15.80
2023-07-21T02:21:46.904Z,15.80
2023-07-21T02:24:13.700Z,15.80
2023-07-21T02:26:40.349Z,15.70
2023-07-21T02:29:06.957Z,15.70
2023-07-21T02:31:33.613Z,15.70
2023-07-21T02:34:00.277Z,15.70
2023-07-21T02:36:27.082Z,15.60
2023-07-21T02:38:53.903Z,15.60
2023-07-21T02:41:20.499Z,15.60
2023-07-21T02:43:47.120Z,15.50
2023-07-21T02:46:14.307Z,15.50
2023-07-21T02:48:41.573Z,15.50
2023-07-21T02:51:08.196Z,15.50
2023-07-21T02:53:34.821Z,15.50
2023-07-21T02:56:04.724Z,15.50
2023-07-21T02:58:31.810Z,15.50
2023-07-21T03:01:00.008Z,15.50
2023-07-21T03:03:27.235Z,15.50
2023-07-21T03:05:54.085Z,15.50
2023-07-21T03:08:27.597Z,15.60
2023-07-21T03:10:55.059Z,15.60
2023-07-21T03:13:21.697Z,15.50
2023-07-21T03:15:48.441Z,15.50
2023-07-21T03:18:15.120Z,15.50
2023-07-21T03:20:41.736Z,15.40
2023-07-21T03:23:08.628Z,15.40
2023-07-21T03:25:36.121Z,15.30
2023-07-21T03:28:04.143Z,15.20
2023-07-21T03:30:30.794Z,15.20
2023-07-21T03:32:57.477Z,15.20
2023-07-21T03:35:24.265Z,15.10
2023-07-21T03:37:51.305Z,15.10
2023-07-21T03:40:17.950Z,15.20
2023-07-21T03:42:44.646Z,15.20
2023-07-21T03:45:12.545Z,15.20
2023-07-21T03:47:39.152Z,15.20
2023-07-21T03:50:06.551Z,15.20
2023-07-21T03:52:33.171Z,15.20
2023-07-21T03:54:59.896Z,15.30
2023-07-21T03:57:26.989Z,15.30
2023-07-21T03:59:54.042Z,15.30
2023-07-21T04:02:21.067Z,15.30
2023-07-21T04:04:47.945Z,15.20
2023-07-21T04:07:15.305Z,15.20
2023-07-21T04:09:41.899Z,15.20
2023-07-21T04:12:08.776Z,15.30
2023-07-21T04:14:35.452Z,15.30
2023-07-21T04:17:02.090Z,15.30
2023-07-21T04:19:28.721Z,15.20
2023-07-21T04:21:55.596Z,15.20
2023-07-21T04:24:22.261Z,15.20
2023-07-21T04:26:49.027Z,15.10
2023-07-21T04:29:29.960Z,15.10
2023-07-21T04:32:02.189Z,15.10
2023-07-21T04:34:28.788Z,15.10
2023-07-21T04:36:55.358Z,15.10
2023-07-21T04:39:22.422Z,15.10
2023-07-21T04:41:49.041Z,15.10
2023-07-21T04:44:16.926Z,15.10
2023-07-21T04:46:43.551Z,15.10
2023-07-21T04:49:14.323Z,15.20
2023-07-21T04:51:40.984Z,15.20
2023-07-21T04:54:08.335Z,15.20
2023-07-21T04:56:36.017Z,15.30
2023-07-21T04:59:02.703Z,15.30
2023-07-21T05:01:29.409Z,15.30
2023-07-21T05:03:56.174Z,15.40
2023-07-21T05:06:22.996Z,15.40
2023-07-21T05:08:49.720Z,15.50
2023-07-21T05:11:16.382Z,15.60
2023-07-21T05:13:43.058Z,15.70
2023-07-21T05:16:09.820Z,15.70
2023-07-21T05:18:36.503Z,15.90
2023-07-21T05:21:03.267Z,15.90
2023-07-21T05:23:30.301Z,16.00
2023-07-21T05:26:01.728Z,16.00
2023-07-21T05:28:29.840Z,16.10
2023-07-21T05:30:57.794Z,16.10
2023-07-21T05:33:24.428Z,16.20
2023-07-21T05:35:51.015Z,16.20
2023-07-21T05:38:17.902Z,16.30
2023-07-21T05:40:44.601Z,16.40
2023-07-21T05:43:11.329Z,16.50
2023-07-21T05:45:39.408Z,16.50
2023-07-21T05:48:08.708Z,16.50
2023-07-21T05:50:37.616Z,16.50
2023-07-21T05:53:04.537Z,16.50
2023-07-21T05:55:31.141Z,16.50
2023-07-21T05:57:57.819Z,16.60
2023-07-21T06:00:24.489Z,16.60
2023-07-21T06:02:51.238Z,16.70
2023-07-21T06:05:18.508Z,16.80
2023-07-21T06:07:46.746Z,16.80
2023-07-21T06:10:13.517Z,16.70
2023-07-21T06:12:40.494Z,16.70
2023-07-21T06:15:09.171Z,16.60
2023-07-21T06:17:35.875Z,16.60
2023-07-21T06:20:05.819Z,16.60
2023-07-21T06:22:33.229Z,16.60
2023-07-21T06:25:00.289Z,16.60
2023-07-21T06:27:28.336Z,16.60
2023-07-21T06:29:55.292Z,16.70
2023-07-21T06:32:21.867Z,16.80
2023-07-21T06:34:48.626Z,16.90
2023-07-21T06:37:15.195Z,16.90
2023-07-21T06:39:41.939Z,16.90
2023-07-21T06:42:11.591Z,17.00
2023-07-21T06:44:38.972Z,17.20
2023-07-21T06:47:06.010Z,17.10
2023-07-21T06:49:32.748Z,17.10
2023-07-21T06:51:59.411Z,17.10
2023-07-21T06:54:30.470Z,17.10
2023-07-21T06:56:58.432Z,17.20
2023-07-21T06:59:26.773Z,17.20
2023-07-21T07:01:53.513Z,17.00
2023-07-21T07:04:20.154Z,17.00
2023-07-21T07:06:46.810Z,17.00
2023-07-21T07:09:15.316Z,17.00
2023-07-21T07:11:41.909Z,16.90
2023-07-21T07:14:08.539Z,17.00
2023-07-21T07:16:35.272Z,17.20
2023-07-21T07:19:01.951Z,17.30
2023-07-21T07:21:28.649Z,17.30
2023-07-21T07:23:55.275Z,17.30
2023-07-21T07:26:24.485Z,17.30
2023-07-21T07:28:51.105Z,17.40
2023-07-21T07:31:17.817Z,17.60
2023-07-21T07:33:45.840Z,17.70
2023-07-21T07:36:12.954Z,17.80
2023-07-21T07:38:39.886Z,17.70
2023-07-21T07:41:10.435Z,17.70
2023-07-21T07:43:38.037Z,17.60
2023-07-21T07:46:06.977Z,17.70
2023-07-21T07:48:34.870Z,17.80
2023-07-21T07:51:06.238Z,17.80
2023-07-21T07:53:33.821Z,17.90
2023-07-21T07:56:00.470Z,18.00
2023-07-21T07:58:27.681Z,18.10
2023-07-21T08:00:58.450Z,18.20
2023-07-21T08:03:25.722Z,18.30
2023-07-21T08:05:52.830Z,18.20
2023-07-21T08:08:21.270Z,18.30
2023-07-21T08:10:47.957Z,18.40
2023-07-21T08:13:14.720Z,18.50
2023-07-21T08:15:42.702Z,18.50
2023-07-21T08:18:13.162Z,18.60
2023-07-21T08:20:41.541Z,18.70
2023-07-21T08:23:19.013Z,18.70
2023-07-21T08:25:50.854Z,18.70
2023-07-21T08:28:17.520Z,19.00
2023-07-21T08:30:56.509Z,19.00
2023-07-21T08:33:24.964Z,19.10
2023-07-21T08:35:51.613Z,19.20
2023-07-21T08:38:19.615Z,19.30
2023-07-21T08:40:51.509Z,19.30
2023-07-21T08:43:18.730Z,19.30
2023-07-21T08:45:48.291Z,18.90
2023-07-21T08:48:18.559Z,18.90
2023-07-21T08:50:52.422Z,19.00
2023-07-21T08:53:19.075Z,19.00
2023-07-21T08:55:46.189Z,19.10
2023-07-21T08:58:13.402Z,19.30
2023-07-21T09:00:40.078Z,19.30
2023-07-21T09:03:07.151Z,19.30
2023-07-21T09:05:34.311Z,19.50
2023-07-21T09:08:01.063Z,19.40
2023-07-21T09:10:38.470Z,19.30
2023-07-21T09:13:18.020Z,19.40
2023-07-21T09:15:52.734Z,19.60
2023-07-21T09:18:24.197Z,19.80
2023-07-21T09:20:51.895Z,19.70
2023-07-21T09:23:20.242Z,19.50
2023-07-21T09:25:50.805Z,19.70
2023-07-21T09:28:17.410Z,19.70
2023-07-21T09:30:54.095Z,19.80
2023-07-21T09:33:27.994Z,19.90
2023-07-21T09:36:16.723Z,20.00
2023-07-21T09:38:45.355Z,20.10
2023-07-21T09:41:16.185Z,20.00
2023-07-21T09:43:43.544Z,20.00
2023-07-21T09:48:42.907Z,20.10
2023-07-21T09:51:11.478Z,20.30
2023-07-21T09:53:47.160Z,20.20
2023-07-21T09:56:16.222Z,20.10
2023-07-21T09:58:52.081Z,20.30
2023-07-21T10:01:19.933Z,20.50
2023-07-21T10:03:47.014Z,20.50
2023-07-21T10:06:16.044Z,20.50
2023-07-21T10:08:43.568Z,20.50
2023-07-21T10:11:10.879Z,20.50
2023-07-21T10:13:45.926Z,20.40
2023-07-21T10:16:12.953Z,20.50
2023-07-21T10:19:12.886Z,20.80
2023-07-21T10:21:54.615Z,21.00
2023-07-21T10:24:29.215Z,21.20
2023-07-21T10:27:06.626Z,21.40
2023-07-21T10:29:33.664Z,21.10
2023-07-21T10:32:04.123Z,21.00
2023-07-21T10:34:37.944Z,21.00
2023-07-21T10:37:05.925Z,21.20
2023-07-21T10:39:38.141Z,21.10
2023-07-21T10:42:09.049Z,21.10
2023-07-21T10:44:38.131Z,21.00
2023-07-21T10:47:25.259Z,20.80
2023-07-21T10:49:52.549Z,20.90
2023-07-21T10:52:19.326Z,21.20
2023-07-21T10:54:45.976Z,21.50
2023-07-21T10:57:12.866Z,21.70
2023-07-21T10:59:39.921Z,21.60
2023-07-21T11:02:08.922Z,21.80
2023-07-21T11:04:39.035Z,21.70
2023-07-21T11:07:06.076Z,21.70
2023-07-21T11:09:35.317Z,21.80
2023-07-21T11:12:04.439Z,21.90
2023-07-21T11:14:31.435Z,22.00
2023-07-21T11:17:03.753Z,22.00
2023-07-21T11:19:32.859Z,21.70
2023-07-21T11:22:00.678Z,21.50
2023-07-21T11:24:30.297Z,21.40
2023-07-21T11:27:05.603Z,21.40
2023-07-21T11:29:40.183Z,21.40
2023-07-21T11:32:20.426Z,21.40
2023-07-21T11:34:54.738Z,21.40
2023-07-21T11:37:21.301Z,21.20
2023-07-21T11:39:58.555Z,21.10
2023-07-21T11:42:27.447Z,20.80
2023-07-21T11:44:54.607Z,20.60
2023-07-21T11:47:21.929Z,20.50
2023-07-21T11:49:50.391Z,20.60
2023-07-21T11:52:26.167Z,20.60
2023-07-21T11:54:54.723Z,20.40
2023-07-21T11:57:21.425Z,20.40
2023-07-21T11:59:48.229Z,20.40
2023-07-21T12:02:20.056Z,20.60
2023-07-21T12:04:47.044Z,20.60
2023-07-21T12:07:13.961Z,20.50
2023-07-21T12:09:41.992Z,20.70
2023-07-21T12:12:09.250Z,20.90
2023-07-21T12:14:37.750Z,21.00
2023-07-21T12:17:04.942Z,20.70
2023-07-21T12:19:31.658Z,20.40
2023-07-21T12:21:58.811Z,20.60
2023-07-21T12:24:26.053Z,20.80
2023-07-21T12:26:53.003Z,21.00
2023-07-21T12:29:38.022Z,21.20
2023-07-21T12:32:07.424Z,21.50
2023-07-21T12:34:34.329Z,21.30
2023-07-21T12:37:01.036Z,21.10
2023-07-21T12:39:27.713Z,21.10
2023-07-21T12:41:57.078Z,21.00
2023-07-21T12:44:23.995Z,20.80
2023-07-21T12:46:50.624Z,20.80
2023-07-21T12:49:18.230Z,20.90
2023-07-21T12:51:45.056Z,20.60
2023-07-21T12:54:12.103Z,20.70
2023-07-21T12:56:38.867Z,20.80
2023-07-21T12:59:06.774Z,20.80
2023-07-21T13:01:33.478Z,20.90
2023-07-21T13:04:00.559Z,21.20
2023-07-21T13:06:28.377Z,21.40
2023-07-21T13:08:58.618Z,21.50
2023-07-21T13:11:25.239Z,21.70
2023-07-21T13:13:52.698Z,21.70
2023-07-21T13:16:19.822Z,21.80
2023-07-21T13:18:47.907Z,22.00
2023-07-21T13:21:15.113Z,21.90
2023-07-21T13:23:41.872Z,21.80
2023-07-21T13:26:08.932Z,22.10
2023-07-21T13:28:37.328Z,22.20
2023-07-21T13:31:04.090Z,22.20
2023-07-21T13:33:30.768Z,22.10
2023-07-21T13:35:57.617Z,22.10
2023-07-21T13:38:26.460Z,21.90
2023-07-21T13:40:53.419Z,21.90
2023-07-21T13:43:20.204Z,21.90
2023-07-21T13:45:47.168Z,21.70
2023-07-21T13:48:14.422Z,21.80
2023-07-21T13:50:41.410Z,21.90
2023-07-21T13:53:08.355Z,21.90
2023-07-21T13:55:35.005Z,22.00
2023-07-21T13:58:02.093Z,22.10
2023-07-21T14:00:30.711Z,22.20
2023-07-21T14:02:57.552Z,22.20
2023-07-21T14:05:25.230Z,22.20
2023-07-21T14:07:52.038Z,23.40
2023-07-21T14:10:20.203Z,22.10
2023-07-21T14:12:49.125Z,22.00
2023-07-21T14:15:15.942Z,22.20
2023-07-21T14:17:42.726Z,22.30
2023-07-21T14:20:10.956Z,22.20
2023-07-21T14:22:38.695Z,22.30
2023-07-21T14:25:06.117Z,22.60
2023-07-21T14:27:32.748Z,23.10
2023-07-21T14:29:59.406Z,22.90
2023-07-21T14:32:26.016Z,22.80
2023-07-21T14:34:53.653Z,22.60
2023-07-21T14:37:20.418Z,22.50
2023-07-21T14:39:47.604Z,22.30
2023-07-21T14:42:14.383Z,22.40
2023-07-21T14:44:41.055Z,22.50
2023-07-21T14:47:07.764Z,22.60
2023-07-21T14:49:34.411Z,23.00
2023-07-21T14:52:01.088Z,23.30
2023-07-21T14:54:27.738Z,23.50
2023-07-21T14:56:58.559Z,23.90
2023-07-21T14:59:25.288Z,23.80
2023-07-21T15:01:51.930Z,23.80
2023-07-21T15:04:22.273Z,23.80
2023-07-21T15:06:49.195Z,24.00
2023-07-21T15:09:15.975Z,24.10
2023-07-21T15:11:42.628Z,23.80
2023-07-21T15:14:09.290Z,23.60
2023-07-21T15:16:35.901Z,23.60
2023-07-21T15:19:02.604Z,23.70
2023-07-21T15:21:31.661Z,23.70
2023-07-21T15:23:58.321Z,23.80
2023-07-21T15:26:26.320Z,24.20
2023-07-21T15:28:53.217Z,24.10
2023-07-21T15:31:20.046Z,24.30
2023-07-21T15:33:50.225Z,24.10
2023-07-21T15:36:18.257Z,23.90
2023-07-21T15:38:45.218Z,24.20
2023-07-21T15:41:11.856Z,24.30
2023-07-21T15:43:38.480Z,24.90
2023-07-21T15:46:05.162Z,24.40
2023-07-21T15:48:32.780Z,24.30
2023-07-21T15:50:59.473Z,24.10
2023-07-21T15:53:26.044Z,24.10
2023-07-21T15:55:52.861Z,24.00
2023-07-21T15:58:19.865Z,23.40
2023-07-21T16:00:47.146Z,23.00
2023-07-21T16:03:13.812Z,23.20
2023-07-21T16:05:40.538Z,23.50
2023-07-21T16:08:07.293Z,23.30
2023-07-21T16:10:34.031Z,23.30
2023-07-21T16:13:00.612Z,23.30
2023-07-21T16:15:27.240Z,23.20
2023-07-21T16:17:53.879Z,23.00
2023-07-21T16:20:20.547Z,22.70
2023-07-21T16:22:47.223Z,22.80
2023-07-21T16:25:14.112Z,22.80
2023-07-21T16:27:40.974Z,22.70
2023-07-21T16:30:09.604Z,22.50
2023-07-21T16:32:36.290Z,22.40
2023-07-21T16:35:04.124Z,21.90
2023-07-21T16:37:30.800Z,21.90
2023-07-21T16:39:57.501Z,21.80
2023-07-21T16:42:24.689Z,21.90
2023-07-21T16:44:51.356Z,21.90
2023-07-21T16:47:18.031Z,21.90
2023-07-21T16:49:44.706Z,21.90
2023-07-21T16:52:11.356Z,21.60
2023-07-21T16:54:37.978Z,21.50
2023-07-21T16:57:04.833Z,21.30
2023-07-21T16:59:34.344Z,21.00
2023-07-21T17:02:06.950Z,20.70
2023-07-21T17:04:34.042Z,20.80
2023-07-21T17:07:00.825Z,20.80
2023-07-21T17:09:27.537Z,20.80
2023-07-21T17:11:54.512Z,20.70
2023-07-21T17:14:21.219Z,20.40
2023-07-21T17:16:48.107Z,20.30
2023-07-21T17:19:15.118Z,20.10
2023-07-21T17:21:44.246Z,19.90
2023-07-21T17:24:11.744Z,20.00
2023-07-21T17:26:38.402Z,19.90
2023-07-21T17:29:05.020Z,19.80
2023-07-21T17:31:31.662Z,19.70
2023-07-21T17:33:58.276Z,19.60
2023-07-21T17:36:24.858Z,19.30
2023-07-21T17:38:52.679Z,19.00
2023-07-21T17:41:19.782Z,18.60
2023-07-21T17:43:46.431Z,18.30
2023-07-21T17:46:13.124Z,18.20
2023-07-21T17:48:40.085Z,18.10
2023-07-21T17:51:06.655Z,17.70
2023-07-21T17:53:33.301Z,17.50
2023-07-21T17:55:59.943Z,17.30
2023-07-21T17:58:26.644Z,17.30
2023-07-21T18:00:56.224Z,17.30
2023-07-21T18:03:22.906Z,17.10
2023-07-21T18:05:49.721Z,17.00
2023-07-21T18:08:16.299Z,17.30
2023-07-21T18:10:42.944Z,17.40
2023-07-21T18:13:11.246Z,17.40
2023-07-21T18:15:38.067Z,17.40
2023-07-21T18:18:05.138Z,17.30
2023-07-21T18:20:35.430Z,17.20
2023-07-21T18:23:03.163Z,17.30
2023-07-21T18:25:30.125Z,17.30
2023-07-21T18:27:56.851Z,17.40
2023-07-21T18:30:23.717Z,17.50
2023-07-21T18:32:53.164Z,17.80
2023-07-21T18:35:21.329Z,17.90
2023-07-21T18:37:51.314Z,18.00
2023-07-21T18:40:17.927Z,18.10
2023-07-21T18:42:52.184Z,18.40
2023-07-21T18:45:20.174Z,18.50
2023-07-21T18:47:47.861Z,18.70
2023-07-21T18:50:15.305Z,18.90
2023-07-21T18:52:41.894Z,19.10
2023-07-21T18:55:09.726Z,19.20
2023-07-21T18:57:36.349Z,19.20
2023-07-21T19:00:05.515Z,19.20
2023-07-21T19:02:32.108Z,19.20
2023-07-21T19:04:58.725Z,19.30
2023-07-21T19:07:25.638Z,19.30
2023-07-21T19:09:53.952Z,19.50
2023-07-21T19:12:22.994Z,19.60
2023-07-21T19:14:49.566Z,19.70
2023-07-21T19:17:17.265Z,19.60
2023-07-21T19:19:45.665Z,19.70
2023-07-21T19:22:13.603Z,19.70
2023-07-21T19:24:40.315Z,19.70
2023-07-21T19:27:07.196Z,19.70
2023-07-21T19:29:33.794Z,19.70
2023-07-21T19:32:00.424Z,19.60
2023-07-21T19:34:30.224Z,19.50
2023-07-21T19:36:57.466Z,19.50
2023-07-21T19:39:24.199Z,19.50
2023-07-21T19:41:50.844Z,19.40
2023-07-21T19:44:17.554Z,19.40
2023-07-21T19:46:44.447Z,19.40
2023-07-21T19:49:12.933Z,19.20
2023-07-21T19:51:39.564Z,19.20
2023-07-21T19:54:07.344Z,19.10
2023-07-21T19:56:34.384Z,19.10
2023-07-21T19:59:01.449Z,19.00
2023-07-21T20:01:28.493Z,19.00
2023-07-21T20:03:55.631Z,19.00
2023-07-21T20:06:23.237Z,19.00
2023-07-21T20:08:49.822Z,19.00
2023-07-21T20:11:16.422Z,19.00
2023-07-21T20:13:43.021Z,18.90
2023-07-21T20:16:09.656Z,18.90
2023-07-21T20:18:36.888Z,18.80
2023-07-21T20:21:06.982Z,18.70
2023-07-21T20:23:35.318Z,18.70
2023-07-21T20:26:03.944Z,18.60
2023-07-21T20:28:31.337Z,18.50
2023-07-21T20:30:57.985Z,18.50
2023-07-21T20:33:24.814Z,18.50
2023-07-21T20:35:51.679Z,18.50
2023-07-21T20:38:18.994Z,18.40
2023-07-21T20:40:45.967Z,18.30
2023-07-21T20:43:12.772Z,18.20
2023-07-21T20:45:41.533Z,18.20
2023-07-21T20:48:09.792Z,18.10
2023-07-21T20:50:36.926Z,18.20
2023-07-21T20:53:05.319Z,18.20
2023-07-21T20:55:32.325Z,18.10
2023-07-21T20:57:59.037Z,17.90
2023-07-21T21:00:26.014Z,17.80
2023-07-21T21:02:53.625Z,17.70
2023-07-21T21:05:20.407Z,17.60
2023-07-21T21:07:47.986Z,17.50
2023-07-21T21:10:15.414Z,17.50
2023-07-21T21:12:42.205Z,17.50
2023-07-21T21:15:09.230Z,17.50
2023-07-21T21:17:36.360Z,17.50
2023-07-21T21:20:03.269Z,17.30
2023-07-21T21:22:29.932Z,17.20
2023-07-21T21:24:56.662Z,17.20
2023-07-21T21:27:23.275Z,17.10
2023-07-21T21:29:50.533Z,17.10
2023-07-21T21:32:17.240Z,17.20
2023-07-21T21:34:44.064Z,17.10
2023-07-21T21:37:10.765Z,17.00
2023-07-21T21:39:37.385Z,17.00
2023-07-21T21:42:04.574Z,17.00
2023-07-21T21:44:32.214Z,17.00
2023-07-21T21:46:58.874Z,17.10
2023-07-21T21:49:25.783Z,16.90
2023-07-21T21:51:52.367Z,16.90
2023-07-21T21:54:19.065Z,16.80
2023-07-21T21:56:45.735Z,16.70
2023-07-21T21:59:12.347Z,16.80
2023-07-21T22:01:39.384Z,16.60
2023-07-21T22:04:06.306Z,16.70
2023-07-21T22:06:33.305Z,16.60
2023-07-21T22:08:59.922Z,16.60
2023-07-21T22:11:27.456Z,16.40
2023-07-21T22:13:54.331Z,16.50
2023-07-21T22:16:20.983Z,16.50
2023-07-21T22:18:47.652Z,16.60
2023-07-21T22:21:14.239Z,16.60
2023-07-21T22:23:40.829Z,16.50
2023-07-21T22:26:07.794Z,16.40
2023-07-21T22:28:35.332Z,16.50
2023-07-21T22:31:15.317Z,16.40
2023-07-21T22:33:42.826Z,16.30
2023-07-21T22:36:10.901Z,16.30
2023-07-21T22:38:38.551Z,16.40
2023-07-21T22:41:06.153Z,16.40
2023-07-21T22:43:33.858Z,16.40
2023-07-21T22:46:00.820Z,16.40
2023-07-21T22:48:28.753Z,16.40
2023-07-21T22:50:55.440Z,16.30
2023-07-21T22:53:22.224Z,16.30
2023-07-21T22:55:49.043Z,16.30
2023-07-21T22:58:15.704Z,16.20
2023-07-21T23:00:42.350Z,16.20
2023-07-21T23:03:09.067Z,16.20
2023-07-21T23:05:35.698Z,16.10
2023-07-21T23:08:03.198Z,16.00
2023-07-21T23:10:29.898Z,15.90
2023-07-21T23:12:56.593Z,15.80
2023-07-21T23:15:23.242Z,15.70
2023-07-21T23:17:50.774Z,15.70
2023-07-21T23:20:17.362Z,15.70
2023-07-21T23:22:43.977Z,15.70
2023-07-21T23:25:10.588Z,15.70
2023-07-21T23:27:37.138Z,15.60
2023-07-21T23:30:03.928Z,15.50
2023-07-21T23:32:30.548Z,15.60
2023-07-21T23:34:57.170Z,15.60
2023-07-21T23:37:23.987Z,15.60
2023-07-21T23:39:50.606Z,15.60
2023-07-21T23:42:17.219Z,15.50
2023-07-21T23:44:43.797Z,15.50
2023-07-21T23:47:10.481Z,15.50
2023-07-21T23:49:37.231Z,15.40
2023-07-21T23:52:04.108Z,15.40
2023-07-21T23:54:30.751Z,15.30
2023-07-21T23:56:57.997Z,15.20
2023-07-21T23:59:24.704Z,15.20
